createdAt,value
2018-05-31T00:00:30.565Z,10.67
2018-05-31T00:02:59.063Z,9.77
2018-05-31T00:05:27.534Z,9.33
2018-05-31T00:07:55.215Z,8.87
2018-05-31T00:10:22.866Z,8.53
2018-05-31T00:12:50.574Z,9.90
2018-05-31T00:15:18.787Z,8.20
2018-05-31T00:17:47.242Z,7.67
2018-05-31T00:20:14.936Z,7.47
2018-05-31T00:22:43.381Z,7.10
2018-05-31T00:25:11.074Z,6.37
2018-05-31T00:27:38.758Z,6.73
2018-05-31T00:30:06.472Z,5.97
2018-05-31T00:32:34.169Z,6.10
2018-05-31T00:35:01.845Z,6.87
2018-05-31T00:37:29.558Z,7.10
2018-05-31T00:39:57.225Z,7.13
2018-05-31T00:42:25.706Z,6.73
2018-05-31T00:44:53.377Z,7.07
2018-05-31T00:47:21.064Z,6.77
2018-05-31T00:49:48.716Z,5.63
2018-05-31T00:52:16.429Z,5.93
2018-05-31T00:54:44.088Z,6.77
2018-05-31T00:57:12.748Z,6.40
2018-05-31T00:59:40.464Z,6.60
2018-05-31T01:02:08.139Z,7.47
2018-05-31T01:04:36.578Z,6.60
2018-05-31T01:07:04.308Z,6.83
2018-05-31T01:09:31.960Z,6.83
2018-05-31T01:11:59.675Z,6.40
2018-05-31T01:14:27.404Z,6.13
2018-05-31T01:16:55.054Z,6.70
2018-05-31T01:19:22.754Z,5.87
2018-05-31T01:21:50.429Z,7.10
2018-05-31T01:24:18.173Z,6.80
2018-05-31T01:26:45.836Z,6.43
2018-05-31T01:29:13.536Z,6.20
2018-05-31T01:31:41.211Z,6.60
2018-05-31T01:34:08.905Z,6.60
2018-05-31T01:36:36.567Z,6.80
2018-05-31T01:39:04.379Z,6.40
2018-05-31T01:41:32.416Z,7.13
2018-05-31T01:44:00.879Z,7.27
2018-05-31T01:46:28.572Z,6.90
2018-05-31T01:48:56.264Z,7.47
2018-05-31T01:51:23.951Z,6.03
2018-05-31T01:53:51.599Z,6.53
2018-05-31T01:56:19.304Z,6.80
2018-05-31T01:58:46.955Z,7.50
2018-05-31T02:01:14.653Z,6.77
2018-05-31T02:03:42.339Z,7.10
2018-05-31T02:06:10.040Z,7.40
2018-05-31T02:08:37.709Z,7.50
2018-05-31T02:11:06.180Z,7.20
2018-05-31T02:13:33.864Z,7.60
2018-05-31T02:16:01.553Z,7.10
2018-05-31T02:18:29.248Z,7.33
2018-05-31T02:20:56.919Z,8.03
2018-05-31T02:23:24.631Z,7.23
2018-05-31T02:25:52.319Z,7.53
2018-05-31T02:28:20.025Z,7.83
2018-05-31T02:30:47.684Z,7.70
2018-05-31T02:33:15.395Z,7.90
2018-05-31T02:35:43.071Z,7.10
2018-05-31T02:38:10.780Z,7.77
2018-05-31T02:40:38.431Z,8.03
2018-05-31T02:43:06.888Z,7.33
2018-05-31T02:45:34.559Z,7.93
2018-05-31T02:48:03.040Z,7.80
2018-05-31T02:50:31.464Z,7.70
2018-05-31T02:52:59.164Z,8.30
2018-05-31T02:55:26.832Z,8.40
2018-05-31T02:57:55.297Z,8.03
2018-05-31T03:00:22.966Z,7.50
2018-05-31T03:02:50.651Z,8.27
2018-05-31T03:05:19.116Z,8.03
2018-05-31T03:07:47.577Z,8.70
2018-05-31T03:10:15.263Z,9.00
2018-05-31T03:12:42.925Z,10.63
2018-05-31T03:15:11.391Z,8.83
2018-05-31T03:17:39.827Z,8.80
2018-05-31T03:20:07.543Z,10.47
2018-05-31T03:22:35.965Z,9.80
2018-05-31T03:25:03.727Z,10.57
2018-05-31T03:27:31.432Z,8.87
2018-05-31T03:29:59.866Z,9.63
2018-05-31T03:32:27.621Z,10.30
2018-05-31T03:34:55.288Z,9.43
2018-05-31T03:37:23.056Z,9.00
2018-05-31T03:39:50.708Z,9.17
2018-05-31T03:42:18.408Z,8.87
2018-05-31T03:44:46.857Z,9.10
2018-05-31T03:47:14.572Z,8.17
2018-05-31T03:49:43.023Z,8.73
2018-05-31T03:52:10.682Z,10.10
2018-05-31T03:54:38.362Z,9.47
2018-05-31T03:57:06.779Z,8.57
2018-05-31T03:59:34.464Z,9.10
2018-05-31T04:02:02.148Z,8.43
2018-05-31T04:04:29.858Z,10.27
2018-05-31T04:06:57.581Z,8.97
2018-05-31T04:09:25.274Z,9.90
2018-05-31T04:11:52.969Z,9.30
2018-05-31T04:14:20.633Z,8.90
2018-05-31T04:16:48.333Z,8.37
2018-05-31T04:19:16.821Z,10.00
2018-05-31T04:21:44.523Z,10.63
2018-05-31T04:24:12.261Z,9.50
2018-05-31T04:26:39.952Z,9.50
2018-05-31T04:29:07.617Z,8.90
2018-05-31T04:31:35.312Z,9.13
2018-05-31T04:34:02.963Z,8.47
2018-05-31T04:36:31.423Z,9.90
2018-05-31T04:38:59.132Z,8.47
2018-05-31T04:41:26.804Z,9.70
2018-05-31T04:43:54.502Z,9.30
2018-05-31T04:46:22.162Z,8.30
2018-05-31T04:48:49.849Z,8.87
2018-05-31T04:51:18.290Z,8.60
2018-05-31T04:53:45.983Z,8.47
2018-05-31T04:56:13.673Z,7.93
2018-05-31T04:58:41.351Z,8.00
2018-05-31T05:01:09.028Z,8.07
2018-05-31T05:03:36.715Z,7.50
2018-05-31T05:06:04.412Z,8.10
2018-05-31T05:08:32.096Z,9.50
2018-05-31T05:10:59.791Z,8.57
2018-05-31T05:13:27.451Z,9.03
2018-05-31T05:15:55.918Z,9.67
2018-05-31T05:18:23.603Z,9.17
2018-05-31T05:20:51.301Z,8.17
2018-05-31T05:23:18.955Z,8.97
2018-05-31T05:25:46.643Z,9.07
2018-05-31T05:28:14.312Z,9.03
2018-05-31T05:30:42.005Z,8.70
2018-05-31T05:33:09.837Z,8.17
2018-05-31T05:35:37.483Z,8.20
2018-05-31T05:38:05.173Z,7.90
2018-05-31T05:40:32.888Z,8.07
2018-05-31T05:43:00.557Z,7.43
2018-05-31T05:45:28.265Z,7.60
2018-05-31T05:47:55.932Z,8.10
2018-05-31T05:50:23.614Z,6.90
2018-05-31T05:52:52.089Z,7.10
2018-05-31T05:55:19.784Z,7.27
2018-05-31T05:57:47.463Z,7.00
2018-05-31T06:00:15.184Z,6.93
2018-05-31T06:02:43.633Z,7.50
2018-05-31T06:05:11.300Z,7.67
2018-05-31T06:07:39.021Z,9.13
2018-05-31T06:10:06.754Z,8.70
2018-05-31T06:12:34.416Z,7.30
2018-05-31T06:15:02.124Z,8.53
2018-05-31T06:17:29.783Z,8.53
2018-05-31T06:19:57.489Z,8.60
2018-05-31T06:22:25.169Z,8.10
2018-05-31T06:24:52.865Z,8.47
2018-05-31T06:27:20.532Z,7.60
2018-05-31T06:29:48.250Z,8.30
2018-05-31T06:32:15.912Z,9.07
2018-05-31T06:34:43.605Z,7.27
2018-05-31T06:37:12.103Z,7.57
2018-05-31T06:39:40.545Z,8.57
2018-05-31T06:42:08.332Z,7.40
2018-05-31T06:44:35.992Z,7.33
2018-05-31T06:47:03.695Z,6.40
2018-05-31T06:49:32.131Z,7.37
2018-05-31T06:51:59.837Z,6.13
2018-05-31T06:54:27.496Z,6.17
2018-05-31T06:56:55.947Z,7.00
2018-05-31T06:59:23.622Z,6.37
2018-05-31T07:01:51.281Z,7.50
2018-05-31T07:04:18.964Z,7.90
2018-05-31T07:06:47.386Z,6.93
2018-05-31T07:09:15.088Z,7.37
2018-05-31T07:11:42.742Z,7.17
2018-05-31T07:14:10.450Z,7.53
2018-05-31T07:16:38.109Z,8.80
2018-05-31T07:19:05.789Z,8.90
2018-05-31T07:21:33.468Z,8.20
2018-05-31T07:24:01.195Z,8.20
2018-05-31T07:26:28.900Z,7.87
2018-05-31T07:28:57.352Z,8.00
2018-05-31T07:31:25.051Z,8.27
2018-05-31T07:33:52.721Z,7.87
2018-05-31T07:36:21.231Z,8.10
2018-05-31T07:38:48.911Z,8.37
2018-05-31T07:41:16.588Z,9.17
2018-05-31T07:43:44.257Z,8.97
2018-05-31T07:46:11.966Z,7.87
2018-05-31T07:48:39.653Z,9.60
2018-05-31T07:51:07.336Z,9.10
2018-05-31T07:53:35.041Z,8.20
2018-05-31T07:56:02.691Z,10.77
2018-05-31T07:58:31.146Z,9.57
2018-05-31T08:00:58.810Z,10.53
2018-05-31T08:03:26.516Z,10.30
2018-05-31T08:05:54.225Z,10.97
2018-05-31T08:08:21.917Z,9.77
2018-05-31T08:10:50.721Z,9.80
2018-05-31T08:13:18.440Z,10.20
2018-05-31T08:15:46.138Z,9.73
2018-05-31T08:18:13.875Z,9.60
2018-05-31T08:20:42.340Z,11.50
2018-05-31T08:23:10.026Z,10.03
2018-05-31T08:25:38.464Z,10.50
2018-05-31T08:28:06.150Z,9.33
2018-05-31T08:30:33.842Z,10.77
2018-05-31T08:33:01.500Z,10.03
2018-05-31T08:35:29.181Z,11.93
2018-05-31T08:37:56.857Z,11.47
2018-05-31T08:40:24.646Z,10.77
2018-05-31T08:42:52.308Z,10.10
2018-05-31T08:45:20.008Z,12.30
2018-05-31T08:47:47.693Z,10.70
2018-05-31T08:50:15.383Z,10.70
2018-05-31T08:52:43.628Z,9.00
2018-05-31T08:55:11.358Z,10.47
2018-05-31T08:57:39.033Z,10.40
2018-05-31T09:00:06.779Z,10.70
2018-05-31T09:02:34.439Z,10.87
2018-05-31T09:05:02.120Z,12.50
2018-05-31T09:07:29.832Z,10.57
2018-05-31T09:09:57.498Z,10.10
2018-05-31T09:12:25.942Z,9.93
2018-05-31T09:14:53.578Z,9.60
2018-05-31T09:17:21.266Z,8.50
2018-05-31T09:19:48.920Z,9.43
2018-05-31T09:22:16.617Z,8.20
2018-05-31T09:24:45.033Z,9.60
2018-05-31T09:27:12.723Z,10.20
2018-05-31T09:29:40.387Z,9.90
2018-05-31T09:32:08.067Z,9.33
2018-05-31T09:34:35.710Z,8.70
2018-05-31T09:37:03.426Z,9.03
2018-05-31T09:39:31.115Z,9.30
2018-05-31T09:41:58.767Z,9.60
2018-05-31T09:44:26.443Z,9.97
2018-05-31T09:46:54.084Z,8.30
2018-05-31T09:49:21.770Z,9.10
2018-05-31T09:51:50.222Z,9.93
2018-05-31T09:54:18.674Z,9.77
2018-05-31T09:56:46.327Z,8.60
2018-05-31T09:59:14.766Z,8.83
2018-05-31T10:01:42.432Z,8.67
2018-05-31T10:04:10.128Z,8.93
2018-05-31T10:06:38.572Z,9.07
2018-05-31T10:09:06.255Z,9.30
2018-05-31T10:11:34.679Z,11.00
2018-05-31T10:14:02.391Z,8.60
2018-05-31T10:16:30.048Z,9.80
2018-05-31T10:18:57.724Z,9.60
2018-05-31T10:21:26.173Z,9.43
2018-05-31T10:23:53.843Z,8.70
2018-05-31T10:26:21.507Z,10.43
2018-05-31T10:28:49.192Z,10.47
2018-05-31T10:31:16.876Z,12.10
2018-05-31T10:33:44.545Z,10.80
2018-05-31T10:36:12.199Z,10.83
2018-05-31T10:38:40.248Z,10.17
2018-05-31T10:41:07.913Z,11.50
2018-05-31T10:43:35.632Z,12.93
2018-05-31T10:46:03.310Z,11.73
2018-05-31T10:48:31.774Z,11.10
2018-05-31T10:50:59.424Z,10.90
2018-05-31T10:53:27.080Z,11.47
2018-05-31T10:55:54.788Z,10.47
2018-05-31T10:58:22.438Z,11.60
2018-05-31T11:00:50.173Z,10.97
2018-05-31T11:03:17.821Z,9.30
2018-05-31T11:05:45.495Z,10.80
2018-05-31T11:08:13.156Z,10.40
2018-05-31T11:10:40.815Z,8.50
2018-05-31T11:13:08.457Z,9.93
2018-05-31T11:15:36.135Z,10.43
2018-05-31T11:18:03.852Z,10.53
2018-05-31T11:20:31.564Z,9.40
2018-05-31T11:22:59.262Z,11.00
2018-05-31T11:25:26.907Z,9.73
2018-05-31T11:27:54.638Z,9.23
2018-05-31T11:30:22.291Z,10.70
2018-05-31T11:32:49.980Z,10.00
2018-05-31T11:35:18.413Z,10.30
2018-05-31T11:37:47.018Z,9.50
2018-05-31T11:40:14.660Z,10.10
2018-05-31T11:42:42.354Z,10.30
2018-05-31T11:45:10.776Z,9.77
2018-05-31T11:47:38.450Z,10.50
2018-05-31T11:50:06.180Z,10.40
2018-05-31T11:52:33.824Z,9.77
2018-05-31T11:55:02.272Z,10.13
2018-05-31T11:57:29.927Z,9.60
2018-05-31T11:59:57.617Z,9.93
2018-05-31T12:02:26.036Z,10.50
2018-05-31T12:04:53.722Z,10.20
2018-05-31T12:07:21.376Z,9.77
2018-05-31T12:09:49.058Z,10.23
2018-05-31T12:12:16.815Z,9.23
2018-05-31T12:14:44.459Z,9.00
2018-05-31T12:17:12.142Z,9.57
2018-05-31T12:19:39.789Z,8.80
2018-05-31T12:22:07.468Z,7.83
2018-05-31T12:24:35.139Z,9.03
2018-05-31T12:27:03.587Z,8.40
2018-05-31T12:29:31.261Z,8.00
2018-05-31T12:31:58.948Z,8.27
2018-05-31T12:34:26.588Z,8.50
2018-05-31T12:36:54.264Z,9.37
2018-05-31T12:39:22.664Z,8.00
2018-05-31T12:41:50.347Z,8.60
2018-05-31T12:44:18.010Z,8.20
2018-05-31T12:46:45.699Z,9.30
2018-05-31T12:49:13.347Z,9.10
2018-05-31T12:51:41.039Z,7.50
2018-05-31T12:54:09.444Z,8.33
2018-05-31T12:56:37.123Z,8.50
2018-05-31T12:59:04.825Z,8.43
2018-05-31T13:01:32.521Z,8.57
2018-05-31T13:04:00.162Z,8.17
2018-05-31T13:06:27.833Z,8.00
2018-05-31T13:08:55.474Z,8.10
2018-05-31T13:11:23.956Z,7.83
2018-05-31T13:13:52.425Z,7.53
2018-05-31T13:16:20.124Z,8.17
2018-05-31T13:18:47.824Z,6.80
2018-05-31T13:21:15.483Z,6.87
2018-05-31T13:23:43.160Z,6.77
2018-05-31T13:26:10.820Z,7.43
2018-05-31T13:28:38.518Z,6.40
2018-05-31T13:31:06.285Z,6.50
2018-05-31T13:33:33.984Z,6.50
2018-05-31T13:36:04.690Z,6.30
2018-05-31T13:38:32.367Z,7.00
2018-05-31T13:41:00.017Z,6.40
2018-05-31T13:43:27.690Z,5.90
2018-05-31T13:45:55.347Z,5.70
2018-05-31T13:48:23.040Z,6.20
2018-05-31T13:50:50.683Z,7.00
2018-05-31T13:53:18.376Z,5.43
2018-05-31T13:55:46.783Z,6.30
2018-05-31T13:58:14.477Z,7.47
2018-05-31T14:00:42.157Z,6.50
2018-05-31T14:03:09.813Z,7.77
2018-05-31T14:05:37.522Z,7.20
2018-05-31T14:08:05.183Z,6.80
2018-05-31T14:10:32.878Z,6.40
2018-05-31T14:13:00.528Z,7.17
2018-05-31T14:15:28.199Z,8.67
2018-05-31T14:17:55.874Z,7.40
2018-05-31T14:20:23.560Z,8.20
2018-05-31T14:22:51.999Z,7.53
2018-05-31T14:25:19.691Z,8.07
2018-05-31T14:27:48.092Z,8.27
2018-05-31T14:30:15.773Z,9.70
2018-05-31T14:32:43.475Z,9.50
2018-05-31T14:35:11.129Z,9.53
2018-05-31T14:37:38.810Z,10.00
2018-05-31T14:40:07.225Z,9.80
2018-05-31T14:42:34.925Z,9.37
2018-05-31T14:45:02.613Z,10.00
2018-05-31T14:47:31.054Z,9.80
2018-05-31T14:49:58.707Z,8.83
2018-05-31T14:52:26.390Z,9.43
2018-05-31T14:54:54.040Z,9.67
2018-05-31T14:57:21.726Z,9.83
2018-05-31T14:59:49.449Z,9.07
2018-05-31T15:02:17.118Z,8.73
2018-05-31T15:04:44.799Z,9.50
2018-05-31T15:07:12.446Z,9.77
2018-05-31T15:09:40.123Z,8.90
2018-05-31T15:12:07.781Z,9.40
2018-05-31T15:14:35.498Z,8.90
2018-05-31T15:17:03.915Z,9.30
2018-05-31T15:19:31.589Z,8.13
2018-05-31T15:21:59.236Z,8.83
2018-05-31T15:24:26.922Z,10.10
2018-05-31T15:26:55.364Z,8.80
2018-05-31T15:29:23.005Z,7.73
2018-05-31T15:31:50.711Z,9.03
2018-05-31T15:34:19.114Z,8.67
2018-05-31T15:36:46.836Z,8.10
2018-05-31T15:39:14.491Z,9.70
2018-05-31T15:41:42.195Z,9.23
2018-05-31T15:44:09.846Z,8.00
2018-05-31T15:46:37.545Z,9.20
2018-05-31T15:49:05.249Z,9.43
2018-05-31T15:51:34.177Z,8.40
2018-05-31T15:54:01.903Z,7.70
2018-05-31T15:56:30.355Z,10.17
2018-05-31T15:58:58.027Z,9.33
2018-05-31T16:01:25.660Z,9.33
2018-05-31T16:03:53.346Z,8.47
2018-05-31T16:06:21.024Z,9.03
2018-05-31T16:08:49.478Z,9.60
2018-05-31T16:11:17.124Z,9.50
2018-05-31T16:13:44.810Z,9.27
2018-05-31T16:16:12.455Z,9.30
2018-05-31T16:18:40.131Z,10.20
2018-05-31T16:21:07.788Z,9.87
2018-05-31T16:23:35.492Z,9.30
2018-05-31T16:26:03.209Z,9.37
2018-05-31T16:28:30.873Z,9.67
2018-05-31T16:30:59.343Z,9.03
2018-05-31T16:33:26.980Z,8.13
2018-05-31T16:35:54.657Z,8.97
2018-05-31T16:38:22.316Z,9.20
2018-05-31T16:40:50.040Z,9.13
2018-05-31T16:43:17.689Z,8.40
2018-05-31T16:45:45.459Z,9.10
2018-05-31T16:48:13.111Z,8.63
2018-05-31T16:50:40.808Z,8.77
2018-05-31T16:53:08.472Z,10.67
2018-05-31T16:55:36.159Z,11.10
2018-05-31T16:58:03.873Z,12.93
2018-05-31T17:00:31.520Z,12.80
2018-05-31T17:02:59.205Z,12.53
2018-05-31T17:05:26.907Z,13.30
2018-05-31T17:07:55.359Z,13.83
2018-05-31T17:10:23.017Z,15.10
2018-05-31T17:12:50.700Z,13.50
2018-05-31T17:15:19.128Z,12.60
2018-05-31T17:17:46.825Z,12.40
2018-05-31T17:20:14.481Z,16.20
2018-05-31T17:22:42.155Z,10.00
2018-05-31T17:25:09.846Z,10.70
2018-05-31T17:27:37.512Z,13.20
2018-05-31T17:30:05.267Z,12.10
2018-05-31T17:32:32.907Z,11.23
2018-05-31T17:35:00.612Z,11.60
2018-05-31T17:37:29.040Z,12.20
2018-05-31T17:39:56.715Z,12.37
2018-05-31T17:42:25.151Z,12.17
2018-05-31T17:44:52.845Z,12.60
2018-05-31T17:47:21.313Z,13.47
2018-05-31T17:49:49.007Z,13.73
2018-05-31T17:52:16.692Z,16.27
2018-05-31T17:54:44.437Z,16.60
2018-05-31T17:57:12.166Z,14.90
2018-05-31T17:59:40.818Z,15.93
2018-05-31T18:02:09.718Z,15.60
2018-05-31T18:04:37.509Z,19.00
2018-05-31T18:07:06.016Z,19.53
2018-05-31T18:09:34.332Z,22.77
2018-05-31T18:12:02.144Z,22.97
2018-05-31T18:14:29.934Z,21.90
2018-05-31T18:16:57.911Z,9.63
2018-05-31T18:19:25.766Z,9.90
2018-05-31T18:21:53.735Z,6.70
2018-05-31T18:24:21.422Z,12.60
2018-05-31T18:26:49.074Z,9.40
2018-05-31T18:29:16.767Z,6.47
2018-05-31T18:31:45.210Z,8.23
2018-05-31T18:34:12.875Z,6.20
2018-05-31T18:36:40.544Z,6.37
2018-05-31T18:39:08.200Z,6.17
2018-05-31T18:41:35.878Z,5.50
2018-05-31T18:44:03.530Z,8.70
2018-05-31T18:46:31.204Z,8.20
2018-05-31T18:48:59.627Z,8.23
2018-05-31T18:51:27.298Z,7.00
2018-05-31T18:53:54.940Z,8.80
2018-05-31T18:56:22.640Z,8.40
2018-05-31T18:58:50.340Z,7.77
2018-05-31T19:01:18.034Z,7.80
2018-05-31T19:03:45.706Z,8.27
2018-05-31T19:06:13.379Z,8.27
2018-05-31T19:08:41.045Z,7.53
2018-05-31T19:11:08.711Z,7.70
2018-05-31T19:13:42.106Z,7.00
2018-05-31T19:16:09.748Z,7.20
2018-05-31T19:18:43.869Z,7.97
2018-05-31T19:21:11.519Z,7.37
2018-05-31T19:23:39.217Z,7.97
2018-05-31T19:26:07.647Z,7.23
2018-05-31T19:28:35.335Z,8.20
2018-05-31T19:31:08.578Z,8.27
2018-05-31T19:33:36.269Z,6.60
2018-05-31T19:36:09.633Z,8.57
2018-05-31T19:38:37.348Z,9.97
2018-05-31T19:41:05.038Z,9.80
2018-05-31T19:43:38.428Z,10.10
2018-05-31T19:46:06.847Z,9.70
2018-05-31T19:48:34.585Z,10.40
2018-05-31T19:51:02.234Z,10.20
2018-05-31T19:53:35.528Z,9.53
2018-05-31T19:56:03.194Z,8.20
2018-05-31T19:58:36.623Z,8.97
2018-05-31T20:01:09.927Z,8.97
2018-05-31T20:03:37.609Z,8.27
2018-05-31T20:06:05.264Z,8.10
2018-05-31T20:08:32.970Z,8.63
2018-05-31T20:11:00.614Z,9.03
2018-05-31T20:13:28.306Z,8.77
2018-05-31T20:15:55.943Z,8.40
2018-05-31T20:18:23.648Z,8.70
2018-05-31T20:20:51.351Z,8.97
2018-05-31T20:23:19.054Z,8.57
2018-05-31T20:25:46.731Z,8.47
2018-05-31T20:28:14.593Z,7.90
2018-05-31T20:30:42.586Z,9.07
2018-05-31T20:33:10.489Z,9.00
2018-05-31T20:35:38.217Z,11.20
2018-05-31T20:38:06.940Z,8.90
2018-05-31T20:40:35.032Z,9.50
2018-05-31T20:43:04.002Z,9.90
2018-05-31T20:45:32.052Z,9.30
2018-05-31T20:48:00.118Z,10.83
2018-05-31T20:50:28.198Z,9.87
2018-05-31T20:52:56.184Z,9.83
2018-05-31T20:55:24.158Z,11.10
2018-05-31T20:57:52.112Z,10.50
2018-05-31T21:00:20.137Z,11.87
2018-05-31T21:02:48.261Z,12.67
2018-05-31T21:05:15.986Z,11.60
2018-05-31T21:07:43.879Z,12.37
2018-05-31T21:10:11.775Z,14.73
2018-05-31T21:12:39.675Z,14.33
2018-05-31T21:15:08.238Z,14.20
2018-05-31T21:17:36.051Z,12.57
2018-05-31T21:20:03.853Z,14.00
2018-05-31T21:22:31.607Z,13.87
2018-05-31T21:24:59.267Z,14.77
2018-05-31T21:27:27.170Z,13.80
2018-05-31T21:29:55.784Z,13.63
2018-05-31T21:32:24.193Z,11.80
2018-05-31T21:34:52.032Z,13.57
2018-05-31T21:37:19.967Z,13.53
2018-05-31T21:39:48.495Z,12.00
2018-05-31T21:42:16.169Z,13.10
2018-05-31T21:44:44.473Z,16.43
2018-05-31T21:47:12.178Z,15.40
2018-05-31T21:49:39.860Z,14.13
2018-05-31T21:52:07.669Z,13.83
2018-05-31T21:54:35.808Z,13.07
2018-05-31T21:57:03.758Z,13.60
2018-05-31T21:59:31.773Z,13.43
2018-05-31T22:02:00.467Z,14.50
2018-05-31T22:04:28.372Z,13.50
2018-05-31T22:06:56.214Z,12.27
2018-05-31T22:09:23.938Z,14.60
2018-05-31T22:11:52.604Z,13.00
2018-05-31T22:14:20.501Z,15.37
2018-05-31T22:16:48.256Z,13.23
2018-05-31T22:19:15.991Z,12.77
2018-05-31T22:21:43.675Z,13.77
2018-05-31T22:24:12.367Z,14.20
2018-05-31T22:26:40.487Z,14.00
2018-05-31T22:29:08.206Z,13.60
2018-05-31T22:31:35.872Z,13.43
2018-05-31T22:34:03.741Z,14.20
2018-05-31T22:36:31.665Z,13.03
2018-05-31T22:38:59.569Z,12.97
2018-05-31T22:41:27.345Z,12.90
2018-05-31T22:43:55.235Z,15.03
2018-05-31T22:46:23.232Z,13.90
2018-05-31T22:48:51.891Z,14.77
2018-05-31T22:51:19.898Z,17.10
2018-05-31T22:53:48.667Z,15.77
2018-05-31T22:56:17.275Z,13.93
2018-05-31T22:58:45.864Z,14.30
2018-05-31T23:01:13.744Z,14.80
2018-05-31T23:03:41.639Z,15.40
2018-05-31T23:06:09.471Z,15.40
2018-05-31T23:08:42.159Z,15.37
2018-05-31T23:11:09.841Z,14.50
2018-05-31T23:13:37.545Z,12.67
2018-05-31T23:16:05.319Z,13.93
2018-05-31T23:18:33.010Z,15.00
2018-05-31T23:21:00.794Z,16.47
2018-05-31T23:23:28.628Z,16.90
2018-05-31T23:25:56.508Z,15.13
2018-05-31T23:28:24.524Z,15.90
2018-05-31T23:30:53.031Z,15.83
2018-05-31T23:33:22.539Z,16.33
2018-05-31T23:35:50.423Z,15.40
2018-05-31T23:38:18.317Z,13.90
2018-05-31T23:40:46.199Z,13.80
2018-05-31T23:43:14.283Z,12.50
2018-05-31T23:45:42.168Z,14.60
2018-05-31T23:48:10.211Z,15.07
2018-05-31T23:50:37.902Z,14.13
2018-05-31T23:53:05.578Z,14.57
2018-05-31T23:55:33.260Z,13.90
2018-05-31T23:58:00.980Z,12.40
